Time;durP1;ratioP1;P1;durP2;ratioP2;P2;SDS_P1;SDS_P2;PMS_P1;PMS_P2;Temp;Humidity;BMP_temperature;BMP_pressure;BME280_temperature;BME280_humidity;BME280_pressure;Samples;Min_cycle;Max_cycle;Signal;HPM_P1;HPM_P2
2022/11/30 05:22:35;;;;;;;15.80;6.78;;;;;;;6.89;100.00;100635.44;5088595;28;20397;-67
2022/11/30 05:25:01;;;;;;;20.05;8.50;;;;;;;6.91;100.00;100636.16;5089091;28;20036;-68
2022/11/30 05:27:26;;;;;;;19.77;7.88;;;;;;;6.96;100.00;100641.03;5088881;28;20228;-68
2022/11/30 05:29:51;;;;;;;19.65;7.75;;;;;;;6.94;100.00;100638.53;5088957;28;20043;-68
2022/11/30 05:32:17;;;;;;;16.92;7.43;;;;;;;6.96;100.00;100641.03;5088475;28;20435;-69
2022/11/30 05:34:42;;;;;;;12.82;6.78;;;;;;;6.94;100.00;100645.63;5089282;28;20477;-68
2022/11/30 05:37:08;;;;;;;19.90;7.85;;;;;;;6.96;100.00;100641.03;5088717;28;20043;-68
2022/11/30 05:39:33;;;;;;;11.38;6.00;;;;;;;6.97;100.00;100642.69;5088687;28;20071;-68
2022/11/30 05:41:58;;;;;;;16.25;6.60;;;;;;;6.94;100.00;100640.34;5088333;28;20045;-68
2022/11/30 05:44:24;;;;;;;14.00;6.30;;;;;;;6.99;100.00;100643.41;5088581;28;20046;-68
2022/11/30 05:46:49;;;;;;;13.38;6.78;;;;;;;6.97;100.00;100651.47;5088526;28;20047;-68
2022/11/30 05:49:15;;;;;;;14.57;7.18;;;;;;;6.95;100.00;100657.88;5088764;28;20115;-68
2022/11/30 05:51:40;;;;;;;15.90;6.95;;;;;;;6.95;100.00;100650.78;5088204;28;20481;-68
2022/11/30 05:54:06;;;;;;;10.60;5.28;;;;;;;6.93;100.00;100657.22;5088362;28;20036;-68
2022/11/30 05:56:31;;;;;;;12.90;6.00;;;;;;;6.95;100.00;100657.88;5088322;28;20040;-68
2022/11/30 05:58:57;;;;;;;16.35;5.65;;;;;;;6.92;100.00;100659.03;5088322;28;20040;-67
2022/11/30 06:01:27;;;;;;;9.73;5.53;;;;;;;6.92;100.00;100658.19;5088014;28;20036;-67
2022/11/30 06:03:53;;;;;;;10.15;5.18;;;;;;;6.92;100.00;100656.38;5088335;28;20036;-67
2022/11/30 06:06:18;;;;;;;12.02;6.50;;;;;;;6.90;100.00;100654.81;5088136;28;20084;-68
2022/11/30 06:08:45;;;;;;;10.13;5.05;;;;;;;6.87;100.00;100655.94;5086821;28;20488;-68
2022/11/30 06:11:11;;;;;;;11.95;5.57;;;;;;;6.88;100.00;100654.13;5087851;28;20378;-67
2022/11/30 06:13:38;;;;;;;10.13;5.63;;;;;;;6.91;100.00;100646.75;5088112;28;20051;-67
2022/11/30 06:16:04;;;;;;;9.35;4.95;;;;;;;6.92;100.00;100653.72;5088164;28;20086;-67
2022/11/30 06:18:30;;;;;;;14.60;6.68;;;;;;;6.94;100.00;100656.22;5088263;28;20043;-67
2022/11/30 06:21:08;;;;;;;11.30;5.82;;;;;;;6.83;100.00;100651.06;5087697;28;20354;-66
2022/11/30 06:23:33;;;;;;;10.20;5.32;;;;;;;6.82;100.00;100652.88;5087926;28;20047;-66
2022/11/30 06:26:08;;;;;;;9.02;5.25;;;;;;;6.82;100.00;100652.88;5087792;28;20052;-66
2022/11/30 06:28:34;;;;;;;11.23;5.40;;;;;;;6.74;100.00;100650.94;5087827;28;20024;-66
2022/11/30 06:31:00;;;;;;;9.23;4.80;;;;;;;6.68;100.00;100646.19;5087463;28;20548;-66
2022/11/30 06:33:26;;;;;;;9.52;5.28;;;;;;;6.65;100.00;100650.91;5077216;28;20036;-67
2022/11/30 06:35:51;;;;;;;11.20;5.13;;;;;;;6.49;100.00;100644.34;5074560;28;20394;-67
2022/11/30 06:38:18;;;;;;;11.60;5.85;;;;;;;6.44;100.00;100653.66;5074062;28;20127;-67
2022/11/30 06:40:43;;;;;;;11.35;5.28;;;;;;;6.43;100.00;100650.19;5073822;28;20033;-66
2022/11/30 06:43:09;;;;;;;10.93;5.85;;;;;;;6.51;100.00;100649.50;5074073;28;20383;-67
2022/11/30 06:45:35;;;;;;;8.68;4.70;;;;;;;6.49;100.00;100643.50;5074050;28;20040;-67
2022/11/30 06:48:00;;;;;;;10.00;5.45;;;;;;;6.52;100.00;100645.91;5074031;28;20396;-67
2022/11/30 06:50:25;;;;;;;8.85;4.78;;;;;;;6.54;100.00;100654.53;5073535;28;20170;-66
2022/11/30 06:52:51;;;;;;;10.23;5.07;;;;;;;6.50;100.00;100653.13;5073883;28;20158;-67
2022/11/30 06:55:16;;;;;;;10.63;5.55;;;;;;;6.44;100.00;100651.03;5073706;28;20040;-67
2022/11/30 06:57:42;;;;;;;10.60;5.60;;;;;;;6.49;100.00;100654.09;5073786;28;20047;-67
2022/11/30 07:00:08;;;;;;;12.82;5.88;;;;;;;6.48;100.00;100660.38;5073566;28;20044;-67
2022/11/30 07:02:33;;;;;;;12.85;5.95;;;;;;;6.51;100.00;100655.63;5073754;28;20037;-66
2022/11/30 07:04:59;;;;;;;12.32;6.25;;;;;;;6.55;100.00;100653.56;5073846;28;20045;-69
2022/11/30 07:07:26;;;;;;;12.02;5.97;;;;;;;6.57;100.00;100664.81;5073586;28;20032;-69
2022/11/30 07:09:52;;;;;;;10.50;6.20;;;;;;;6.60;100.00;100663.75;5073583;28;20113;-70
2022/11/30 07:12:17;;;;;;;10.18;5.93;;;;;;;6.60;100.00;100656.63;5073271;28;20119;-69
2022/11/30 07:14:43;;;;;;;10.75;5.85;;;;;;;6.63;100.00;100659.00;5072326;28;20067;-70
2022/11/30 07:17:08;;;;;;;8.75;5.03;;;;;;;6.59;100.00;100652.31;5073300;28;20489;-70
2022/11/30 07:19:34;;;;;;;10.07;5.20;;;;;;;6.55;100.00;100648.25;5073535;28;20177;-70
2022/11/30 07:21:59;;;;;;;11.77;6.03;;;;;;;6.62;100.00;100659.97;5073004;28;20400;-70
2022/11/30 07:27:08;;;;;;;9.52;5.40;;;;;;;6.60;100.00;100659.28;5073266;28;20082;-69
2022/11/30 07:29:34;;;;;;;11.55;6.15;;;;;;;6.61;100.00;100665.41;5073407;28;20028;-70
2022/11/30 07:31:59;;;;;;;10.57;6.20;;;;;;;6.61;100.00;100668.88;5072806;28;20032;-69
2022/11/30 07:34:25;;;;;;;9.63;5.30;;;;;;;6.64;100.00;100668.59;5073000;28;20497;-70
2022/11/30 07:36:50;;;;;;;10.43;5.90;;;;;;;6.64;100.00;100675.72;5072940;28;20040;-70
2022/11/30 07:39:16;;;;;;;8.60;5.53;;;;;;;6.66;100.00;100676.44;5073014;28;20551;-70
2022/11/30 07:41:41;;;;;;;11.00;5.63;;;;;;;6.66;100.00;100671.97;5072876;28;20024;-70
2022/11/30 07:44:09;;;;;;;10.90;5.32;;;;;;;6.70;100.00;100677.81;5070611;28;20090;-69
2022/11/30 07:46:36;;;;;;;8.90;5.38;;;;;;;6.70;100.00;100680.44;5072771;28;20036;-70
2022/11/30 07:49:02;;;;;;;14.15;6.50;;;;;;;6.68;100.00;100677.13;5072901;28;20043;-70
2022/11/30 07:51:28;;;;;;;12.65;6.38;;;;;;;6.68;100.00;100685.91;5072332;28;20032;-70
2022/11/30 07:53:57;;;;;;;10.70;5.95;;;;;;;6.63;100.00;100674.88;5072594;28;20404;-69
2022/11/30 07:56:24;;;;;;;9.77;5.55;;;;;;;6.65;100.00;100677.38;5072083;28;20457;-69
2022/11/30 07:58:52;;;;;;;12.77;6.13;;;;;;;6.60;100.00;100675.16;5072424;28;20033;-70
2022/11/30 08:01:21;;;;;;;10.73;5.35;;;;;;;6.56;100.00;100683.50;5072239;28;20521;-70
2022/11/30 08:03:47;;;;;;;12.88;7.03;;;;;;;6.63;100.00;100682.81;5072462;28;20043;-70
2022/11/30 08:06:15;;;;;;;10.02;5.60;;;;;;;6.66;100.00;100684.38;5072250;28;20419;-69
2022/11/30 08:08:43;;;;;;;10.85;5.63;;;;;;;6.68;100.00;100683.25;5072355;28;20036;-69
2022/11/30 08:11:10;;;;;;;8.95;5.15;;;;;;;6.72;100.00;100689.94;5072006;28;20225;-70
2022/11/30 08:13:36;;;;;;;10.32;6.07;;;;;;;6.75;100.00;100696.78;5072554;28;20051;-70
2022/11/30 08:16:03;;;;;;;14.48;6.63;;;;;;;6.77;100.00;100692.16;5072158;28;20036;-70
2022/11/30 08:18:29;;;;;;;9.90;5.30;;;;;;;6.82;100.00;100689.94;5071992;28;20121;-71
2022/11/30 08:21:02;;;;;;;9.10;5.93;;;;;;;6.82;100.00;100686.47;5071689;28;20541;-70
2022/11/30 08:23:34;;;;;;;11.25;6.13;;;;;;;6.72;100.00;100689.13;5072101;28;20056;-70
2022/11/30 08:26:05;;;;;;;9.05;5.47;;;;;;;6.69;100.00;100689.38;5071881;28;20036;-70
2022/11/30 08:28:31;;;;;;;11.65;5.68;;;;;;;6.61;100.00;100668.06;5072062;28;20416;-69
2022/11/30 08:31:02;;;;;;;10.25;5.97;;;;;;;6.69;100.00;100695.50;5072066;28;20112;-69
2022/11/30 08:33:27;;;;;;;9.60;5.80;;;;;;;6.64;100.00;100681.84;5071865;28;20405;-71
2022/11/30 08:35:52;;;;;;;9.93;5.32;;;;;;;6.67;100.00;100692.16;5071800;28;20040;-70
2022/11/30 08:38:18;;;;;;;11.40;5.55;;;;;;;6.74;100.00;100695.09;5071659;28;20044;-70
2022/11/30 08:40:43;;;;;;;10.52;5.38;;;;;;;6.75;100.00;100694.13;5070252;28;20047;-70
2022/11/30 08:43:09;;;;;;;11.52;6.15;;;;;;;6.76;100.00;100701.09;5071663;28;20046;-70
2022/11/30 08:45:34;;;;;;;13.02;5.57;;;;;;;6.77;100.00;100708.06;5071683;28;20495;-69
2022/11/30 08:48:00;;;;;;;12.93;6.13;;;;;;;6.83;100.00;100704.03;5071700;28;20060;-70
2022/11/30 08:50:25;;;;;;;12.18;5.65;;;;;;;6.91;100.00;100704.16;5069977;28;20505;-71
2022/11/30 08:52:54;;;;;;;8.93;5.25;;;;;;;6.93;100.00;100704.88;5071665;28;20039;-69
2022/11/30 08:55:19;;;;;;;10.32;5.70;;;;;;;6.95;100.00;100705.56;5071448;28;20117;-70
2022/11/30 08:57:45;;;;;;;10.25;4.88;;;;;;;7.04;100.00;100710.03;5071738;28;20069;-70
2022/11/30 09:00:11;;;;;;;10.10;5.45;;;;;;;7.02;100.00;100717.28;5070389;28;20047;-69
2022/11/30 09:02:37;;;;;;;6.03;4.65;;;;;;;7.08;100.00;100716.72;5071531;28;20051;-69
2022/11/30 09:05:02;;;;;;;11.43;6.85;;;;;;;7.16;100.00;100718.66;5071570;28;20044;-68
2022/11/30 09:07:28;;;;;;;11.27;5.60;;;;;;;7.17;100.00;100726.50;5071634;28;20113;-69
2022/11/30 09:09:53;;;;;;;12.27;6.50;;;;;;;7.16;100.00;100726.63;5071403;28;20185;-70
2022/11/30 09:12:18;;;;;;;11.25;5.40;;;;;;;7.19;100.00;100737.78;5071366;28;20049;-69
2022/11/30 09:14:44;;;;;;;13.40;5.82;;;;;;;7.24;100.00;100738.22;5072437;28;20089;-69
2022/11/30 09:17:09;;;;;;;10.20;5.63;;;;;;;7.17;100.00;100731.81;5071249;28;20048;-69
2022/11/30 09:19:35;;;;;;;9.43;5.60;;;;;;;7.19;100.00;100737.78;5071192;28;20036;-69
2022/11/30 09:22:00;;;;;;;8.55;5.28;;;;;;;7.20;100.00;100741.28;5070957;28;20040;-69
2022/11/30 09:24:26;;;;;;;13.35;6.03;;;;;;;7.21;100.00;100743.78;5071550;28;20055;-70
2022/11/30 09:26:54;;;;;;;8.00;4.93;;;;;;;7.19;100.00;100742.25;5071435;28;20115;-69
2022/11/30 09:29:19;;;;;;;10.30;5.20;;;;;;;7.23;100.00;100747.13;5071306;28;20032;-68
2022/11/30 09:31:45;;;;;;;7.72;5.35;;;;;;;7.25;100.00;100747.84;5070833;28;20458;-68
2022/11/30 09:34:11;;;;;;;8.05;5.07;;;;;;;7.17;100.00;100744.19;5071153;28;20045;-69
2022/11/30 09:36:37;;;;;;;9.25;5.03;;;;;;;7.18;100.00;100745.88;5071024;28;20547;-69
2022/11/30 09:39:02;;;;;;;8.80;5.15;;;;;;;7.17;100.00;100747.69;5071100;28;20040;-69
2022/11/30 09:41:46;;;;;;;10.18;4.47;;;;;;;7.10;100.00;100749.19;5069492;28;20108;-69
2022/11/30 09:44:33;;;;;;;8.63;4.72;;;;;;;7.14;100.00;100752.44;5071263;28;20520;-68
2022/11/30 09:47:23;;;;;;;11.48;4.93;;;;;;;7.03;100.00;100742.78;5071816;28;20041;-69
2022/11/30 09:49:49;;;;;;;8.35;4.97;;;;;;;7.08;100.00;100746.69;5070993;28;20435;-69
2022/11/30 09:52:25;;;;;;;7.50;4.88;;;;;;;7.10;100.00;100749.19;5070732;28;20032;-68
2022/11/30 09:54:50;;;;;;;10.93;5.57;;;;;;;7.15;100.00;100741.69;5069809;28;20116;-68
2022/11/30 09:57:25;;;;;;;10.70;5.32;;;;;;;7.12;100.00;100738.50;5070969;28;20116;-67
2022/11/30 09:59:55;;;;;;;11.38;4.97;;;;;;;7.17;100.00;100736.22;5071013;28;20115;-70
2022/11/30 10:02:43;;;;;;;11.07;5.32;;;;;;;7.22;100.00;100740.16;5070881;28;20482;-68
2022/11/30 10:05:15;;;;;;;8.27;4.80;;;;;;;7.23;100.00;100735.69;5069301;28;20048;-69
2022/11/30 10:08:00;;;;;;;8.23;4.80;;;;;;;7.25;100.00;100739.88;5071773;28;20097;-68
2022/11/30 10:10:39;;;;;;;10.30;5.45;;;;;;;7.28;100.00;100739.59;5074353;28;20420;-67
2022/11/30 10:13:28;;;;;;;10.32;5.05;;;;;;;7.27;100.00;100737.09;5074618;28;20044;-69
2022/11/30 10:16:18;;;;;;;7.05;4.85;;;;;;;7.18;100.00;100738.78;5074526;28;20035;-68
2022/11/30 10:18:59;;;;;;;10.93;6.18;;;;;;;7.26;100.00;100740.72;5074446;28;20081;-68
2022/11/30 10:21:51;;;;;;;12.77;6.00;;;;;;;7.20;100.00;100733.31;5074027;28;20085;-68
2022/11/30 10:24:28;;;;;;;9.13;5.00;;;;;;;7.21;100.00;100733.19;5075438;28;20463;-69
2022/11/30 10:26:56;;;;;;;10.88;6.05;;;;;;;7.27;100.00;100724.66;5073046;28;20482;-68
2022/11/30 10:29:34;;;;;;;10.82;5.13;;;;;;;7.30;100.00;100721.75;5074198;28;20032;-68
2022/11/30 10:32:11;;;;;;;10.63;5.13;;;;;;;7.32;100.00;100730.41;5073740;28;20110;-69
2022/11/30 10:34:41;;;;;;;11.55;5.75;;;;;;;7.40;100.00;100723.56;5072870;28;20036;-68
2022/11/30 10:37:35;;;;;;;9.50;4.88;;;;;;;7.30;100.00;100724.41;5074904;28;20435;-68
2022/11/30 10:40:12;;;;;;;11.15;4.70;;;;;;;7.31;100.00;100723.44;5071711;28;20040;-68
2022/11/30 10:43:07;;;;;;;10.82;5.40;;;;;;;7.30;100.00;100713.81;5074499;28;20526;-68
2022/11/30 10:45:37;;;;;;;8.85;4.90;;;;;;;7.30;100.00;100711.16;5073899;28;20029;-68
2022/11/30 10:48:52;;;;;;;9.75;4.82;;;;;;;7.38;100.00;100712.25;5074019;28;20037;-68
2022/11/30 10:51:19;;;;;;;8.88;4.95;;;;;;;7.49;100.00;100717.38;5070614;28;20056;-68
2022/11/30 10:53:44;;;;;;;10.65;5.63;;;;;;;7.42;100.00;100708.34;5073930;28;20070;-68
2022/11/30 10:56:12;;;;;;;7.55;4.75;;;;;;;7.46;100.00;100704.44;5073935;28;20133;-69
2022/11/30 10:59:10;;;;;;;12.20;5.50;;;;;;;7.51;100.00;100702.19;5073867;28;20542;-67
2022/11/30 11:01:40;;;;;;;9.50;4.47;;;;;;;7.51;100.00;100691.59;5073869;28;20032;-69
2022/11/30 11:04:17;;;;;;;9.57;4.80;;;;;;;7.55;100.00;100695.63;5074655;28;20119;-69
2022/11/30 11:06:46;;;;;;;9.52;5.63;;;;;;;7.61;100.00;100692.41;5073905;28;20032;-68
2022/11/30 11:09:29;;;;;;;11.68;5.28;;;;;;;7.70;100.00;100691.56;5072413;28;20044;-70
2022/11/30 11:12:01;;;;;;;11.00;5.15;;;;;;;7.60;100.00;100688.06;5071920;28;20146;-70
2022/11/30 11:14:27;;;;;;;10.80;5.82;;;;;;;7.78;100.00;100689.00;5073590;28;20123;-68
2022/11/30 11:16:59;;;;;;;10.93;5.32;;;;;;;8.10;100.00;100693.09;5073475;28;20035;-68
2022/11/30 11:19:39;;;;;;;11.45;5.30;;;;;;;8.12;100.00;100685.81;5072175;28;20048;-69
2022/11/30 11:22:26;;;;;;;10.45;5.10;;;;;;;8.41;100.00;100686.53;5073185;28;20401;-69
2022/11/30 11:25:06;;;;;;;12.10;5.72;;;;;;;8.34;100.00;100692.53;5072050;28;20040;-71
2022/11/30 11:27:32;;;;;;;10.73;5.03;;;;;;;8.44;100.00;100682.75;5073308;28;20036;-68
2022/11/30 11:30:04;;;;;;;9.30;5.28;;;;;;;8.52;100.00;100688.13;5071792;28;20114;-68
2022/11/30 11:32:30;;;;;;;10.60;5.47;;;;;;;8.50;100.00;100681.31;5072991;28;20037;-68
2022/11/30 11:34:57;;;;;;;13.10;6.68;;;;;;;8.54;100.00;100690.63;5108030;22;20036;-63
2022/11/30 11:37:22;;;;;;;13.50;5.93;;;;;;;8.20;100.00;100688.56;5093538;28;20077;-63
2022/11/30 11:40:15;;;;;;;12.45;5.30;;;;;;;8.29;100.00;100692.16;5093317;28;20040;-62
2022/11/30 11:42:48;;;;;;;11.05;5.28;;;;;;;8.29;100.00;100698.31;5093056;28;20044;-63
2022/11/30 11:45:22;;;;;;;10.40;5.43;;;;;;;8.23;100.00;100693.59;5093532;28;20032;-63
2022/11/30 11:47:59;;;;;;;9.57;4.63;;;;;;;8.22;100.00;100696.38;5093218;28;20101;-60
2022/11/30 11:50:30;;;;;;;10.27;5.30;;;;;;;8.10;100.00;100693.91;5092886;28;20488;-63
2022/11/30 11:53:21;;;;;;;10.35;4.90;;;;;;;8.01;100.00;100694.78;5093346;28;20028;-63
2022/11/30 11:55:50;;;;;;;9.57;5.22;;;;;;;8.09;100.00;100696.72;5075115;28;20105;-63
2022/11/30 11:58:23;;;;;;;13.80;6.80;;;;;;;8.16;100.00;100693.34;5093106;28;20036;-63
2022/11/30 12:00:49;;;;;;;11.45;5.15;;;;;;;8.14;100.00;100691.78;5092816;28;20036;-63
2022/11/30 12:03:37;;;;;;;9.05;4.85;;;;;;;8.32;100.00;100683.88;5093124;28;20050;-62
2022/11/30 12:06:14;;;;;;;7.85;5.07;;;;;;;8.18;100.00;100684.38;5093080;28;20120;-63
2022/11/30 12:08:59;;;;;;;11.18;5.45;;;;;;;8.24;100.00;100689.09;5092960;28;20042;-63
2022/11/30 12:11:30;;;;;;;9.07;5.00;;;;;;;8.17;100.00;100683.56;5074424;28;20462;-63
2022/11/30 12:13:56;;;;;;;11.27;5.95;;;;;;;8.31;100.00;100682.22;5083919;28;20036;-62
2022/11/30 12:16:39;;;;;;;11.48;5.85;;;;;;;8.36;100.00;100683.47;5092814;28;20056;-63
2022/11/30 12:19:29;;;;;;;13.68;6.03;;;;;;;8.40;100.00;100674.22;5092734;28;20075;-60
2022/11/30 12:22:00;;;;;;;9.70;5.38;;;;;;;8.55;100.00;100684.38;5092352;28;20039;-62
2022/11/30 12:24:41;;;;;;;11.88;5.35;;;;;;;8.67;100.00;100685.78;5092846;28;20396;-63
2022/11/30 12:27:19;;;;;;;9.15;5.50;;;;;;;8.74;100.00;100686.88;5092509;28;20073;-63
2022/11/30 12:29:44;;;;;;;;;;;;;;;8.69;100.00;100683.84;5092808;28;20047;-62
2022/11/30 12:32:30;;;;;;;12.57;5.40;;;;;;;8.55;100.00;100673.75;5091739;28;19918;-63
2022/11/30 12:35:20;;;;;;;7.50;4.70;;;;;;;8.69;100.00;100686.50;5092256;28;20040;-63
2022/11/30 12:38:04;;;;;;;12.85;5.60;;;;;;;8.69;100.00;100684.66;5092507;28;20031;-63
2022/11/30 12:40:55;;;;;;;9.40;5.25;;;;;;;8.68;100.00;100682.19;5092197;28;20439;-63
2022/11/30 12:43:27;;;;;;;10.23;5.60;;;;;;;8.63;100.00;100679.97;5092391;28;20039;-63
2022/11/30 12:46:02;;;;;;;9.95;4.80;;;;;;;8.59;100.00;100675.91;5092123;28;20050;-61
2022/11/30 12:49:01;;;;;;;13.50;5.15;;;;;;;8.53;100.00;100683.66;5092364;28;20494;-62
2022/11/30 12:51:36;;;;;;;12.18;4.85;;;;;;;8.37;100.00;100679.84;5086572;28;20044;-62
2022/11/30 12:54:10;;;;;;;9.75;5.03;;;;;;;8.50;100.00;100682.16;5092163;28;20040;-60
2022/11/30 12:57:08;;;;;;;11.27;5.32;;;;;;;8.48;100.00;100685.94;5092147;28;20042;-61
2022/11/30 12:59:51;;;;;;;9.13;5.32;;;;;;;8.40;100.00;100684.00;5092054;28;20456;-63
2022/11/30 13:02:35;;;;;;;10.63;5.25;;;;;;;8.45;100.00;100686.22;5091914;28;20027;-63
2022/11/30 13:05:08;;;;;;;14.02;6.38;;;;;;;8.43;100.00;100687.22;5091851;28;20043;-63
2022/11/30 13:07:37;;;;;;;12.30;6.25;;;;;;;8.45;100.00;100688.88;5091919;28;20036;-64
2022/11/30 13:10:03;;;;;;;9.52;5.57;;;;;;;8.50;100.00;100683.97;5089769;28;20096;-60
2022/11/30 13:12:36;;;;;;;11.32;5.63;;;;;;;8.43;100.00;100689.88;5071359;28;20039;-63
2022/11/30 13:15:26;;;;;;;10.32;5.75;;;;;;;8.33;100.00;100683.72;5071569;28;20037;-61
2022/11/30 13:17:53;;;;;;;10.25;5.57;;;;;;;8.38;100.00;100681.50;5071580;28;20123;-62
2022/11/30 13:20:45;;;;;;;13.50;5.88;;;;;;;8.39;100.00;100682.34;5071271;28;20032;-63
2022/11/30 13:23:35;;;;;;;10.55;5.50;;;;;;;8.27;100.00;100686.13;5071656;28;20044;-61
2022/11/30 13:26:26;;;;;;;12.13;5.63;;;;;;;8.30;100.00;100689.34;5071680;28;20048;-62
2022/11/30 13:29:12;;;;;;;9.38;5.18;;;;;;;8.28;100.00;100678.06;5071480;28;20040;-57
2022/11/30 13:31:47;;;;;;;7.65;4.72;;;;;;;8.29;100.00;100684.19;5071172;28;20036;-60
2022/11/30 13:34:25;;;;;;;9.35;5.60;;;;;;;8.27;100.00;100681.66;5071488;28;20043;-63
2022/11/30 13:36:50;;;;;;;;;;;;;;;8.35;100.00;100688.91;5071928;28;20028;-63
2022/11/30 13:39:25;;;;;;;9.50;5.40;;;;;;;8.32;100.00;100682.06;5071653;28;19917;-62
2022/11/30 13:42:21;;;;;;;14.23;6.10;;;;;;;8.22;100.00;100680.47;5071116;28;20067;-62
2022/11/30 13:44:46;;;;;;;10.88;5.53;;;;;;;8.28;100.00;100680.72;5075360;28;20036;-63
2022/11/30 13:47:34;;;;;;;11.48;5.90;;;;;;;8.32;100.00;100686.53;5075371;28;20115;-63
2022/11/30 13:50:07;;;;;;;10.50;6.03;;;;;;;8.27;100.00;100681.66;5075215;28;20502;-63
2022/11/30 13:52:57;;;;;;;10.23;5.60;;;;;;;8.28;100.00;100685.16;5075224;28;20396;-64
2022/11/30 13:55:35;;;;;;;11.50;6.05;;;;;;;8.14;100.00;100687.31;5075202;28;20074;-63
2022/11/30 13:58:00;;;;;;;12.23;6.20;;;;;;;8.04;100.00;100683.88;5075235;28;20052;-63
2022/11/30 14:00:28;;;;;;;13.05;6.68;;;;;;;8.08;100.00;100687.91;5074900;28;20505;-61
2022/11/30 14:03:13;;;;;;;10.57;5.32;;;;;;;8.16;100.00;100688.03;5075092;28;20119;-63
2022/11/30 14:05:45;;;;;;;10.50;5.75;;;;;;;8.21;100.00;100686.72;5074945;28;20470;-60
2022/11/30 14:08:20;;;;;;;10.70;6.93;;;;;;;8.24;100.00;100686.44;5074919;28;20085;-61
2022/11/30 14:10:51;;;;;;;13.20;6.10;;;;;;;8.22;100.00;100689.25;5074479;28;20090;-63
2022/11/30 14:13:19;;;;;;;11.02;6.15;;;;;;;8.24;100.00;100691.75;5074775;28;20032;-62
2022/11/30 14:15:59;;;;;;;11.68;6.47;;;;;;;8.21;100.00;100692.03;5074691;28;20040;-58
2022/11/30 14:18:38;;;;;;;13.82;6.22;;;;;;;8.16;100.00;100692.50;5074726;28;20044;-61
2022/11/30 14:21:33;;;;;;;12.55;6.60;;;;;;;8.15;100.00;100693.47;5074376;28;20494;-60
2022/11/30 14:24:05;;;;;;;11.75;5.53;;;;;;;8.19;100.00;100697.50;5074538;28;20128;-62
2022/11/30 14:26:39;;;;;;;16.95;6.68;;;;;;;8.14;100.00;100702.41;5074544;28;20037;-60
2022/11/30 14:29:07;;;;;;;11.02;6.07;;;;;;;8.08;100.00;100701.16;5074558;28;20529;-63
2022/11/30 14:31:41;;;;;;;11.30;5.82;;;;;;;8.04;100.00;100704.28;5074136;28;20056;-62
2022/11/30 14:34:18;;;;;;;13.60;6.88;;;;;;;8.02;100.00;100707.09;5056702;28;20101;-63
2022/11/30 14:36:49;;;;;;;15.50;6.45;;;;;;;8.05;100.00;100700.63;5056545;28;20074;-61
2022/11/30 14:39:24;;;;;;;11.05;6.43;;;;;;;8.05;100.00;100706.78;5074298;28;20467;-60
2022/11/30 14:41:50;;;;;;;9.85;5.78;;;;;;;8.02;100.00;100698.25;5074054;28;20033;-63
2022/11/30 14:44:15;;;;;;;10.57;5.60;;;;;;;8.05;100.00;100687.38;5074208;28;20032;-61
2022/11/30 14:46:41;;;;;;;11.75;6.30;;;;;;;8.03;100.00;100698.13;5074235;28;20040;-62
2022/11/30 14:49:21;;;;;;;9.65;5.22;;;;;;;8.05;100.00;100692.69;5074089;28;20032;-63
2022/11/30 14:51:53;;;;;;;11.27;6.28;;;;;;;8.05;100.00;100690.84;5073656;28;20123;-63
2022/11/30 14:54:35;;;;;;;11.27;6.20;;;;;;;8.10;100.00;100695.75;5073472;28;20048;-64
2022/11/30 14:57:13;;;;;;;14.27;6.63;;;;;;;8.07;100.00;100691.53;5074019;28;20114;-62
2022/11/30 14:59:38;;;;;;;13.60;6.10;;;;;;;8.05;100.00;100687.38;5074008;28;20043;-64
2022/11/30 15:02:16;;;;;;;11.68;6.25;;;;;;;8.01;100.00;100694.78;5073605;28;20025;-61
2022/11/30 15:04:41;;;;;;;10.00;5.30;;;;;;;8.03;100.00;100692.00;5073875;28;20037;-63
2022/11/30 15:07:13;;;;;;;13.18;6.15;;;;;;;8.01;100.00;100694.78;5073802;28;20025;-63
2022/11/30 15:09:42;;;;;;;11.20;6.10;;;;;;;7.97;100.00;100687.28;5055933;28;20032;-62
2022/11/30 15:12:07;;;;;;;17.48;6.70;;;;;;;7.89;100.00;100694.16;5073305;28;20032;-62
2022/11/30 15:14:33;;;;;;;9.57;6.07;;;;;;;7.91;100.00;100694.00;5073623;28;20520;-63
2022/11/30 15:16:58;;;;;;;13.43;6.22;;;;;;;7.92;100.00;100700.13;5073633;28;20075;-63
2022/11/30 15:19:27;;;;;;;14.75;7.80;;;;;;;7.95;100.00;100699.81;5055767;28;20044;-60
2022/11/30 15:21:54;;;;;;;10.63;5.68;;;;;;;7.92;100.00;100695.66;5072510;28;20033;-61
2022/11/30 15:24:20;;;;;;;13.45;6.57;;;;;;;7.85;100.00;100690.09;5055628;28;20477;-60
2022/11/30 15:27:08;;;;;;;12.10;6.22;;;;;;;7.87;100.00;100703.22;5055665;28;20028;-59
2022/11/30 15:29:36;;;;;;;11.50;6.40;;;;;;;7.75;100.00;100699.06;5073490;28;20495;-63
2022/11/30 15:32:06;;;;;;;14.35;6.88;;;;;;;7.79;100.00;100698.63;5073103;28;20036;-62
2022/11/30 15:34:43;;;;;;;12.20;6.50;;;;;;;7.81;100.00;100701.97;5073184;28;20052;-59
2022/11/30 15:37:08;;;;;;;14.00;6.88;;;;;;;7.81;100.00;100698.47;5073198;28;20033;-59
2022/11/30 15:39:34;;;;;;;14.45;6.35;;;;;;;7.77;100.00;100708.56;5055321;28;20481;-58
2022/11/30 15:42:02;;;;;;;15.05;7.03;;;;;;;7.75;100.00;100707.00;5054951;28;20037;-61
2022/11/30 15:44:39;;;;;;;11.00;5.97;;;;;;;7.73;100.00;100709.81;5073094;28;20040;-59
2022/11/30 15:47:22;;;;;;;11.40;5.75;;;;;;;7.79;100.00;100709.25;5073091;28;20513;-60
2022/11/30 15:49:54;;;;;;;15.15;7.13;;;;;;;7.80;100.00;100710.91;5073104;28;20044;-62
2022/11/30 15:52:28;;;;;;;12.18;6.68;;;;;;;7.72;100.00;100710.78;5072643;28;20535;-61
2022/11/30 15:55:01;;;;;;;14.15;6.82;;;;;;;7.73;100.00;100711.63;5072929;28;20552;-63
2022/11/30 15:57:57;;;;;;;15.38;7.13;;;;;;;7.68;100.00;100714.69;5072976;28;20504;-63
2022/11/30 16:00:23;;;;;;;11.85;5.63;;;;;;;7.63;100.00;100716.97;5072461;28;20514;-63
2022/11/30 16:02:48;;;;;;;12.68;6.63;;;;;;;7.64;100.00;100715.97;5072818;28;20119;-63
2022/11/30 16:05:18;;;;;;;13.05;6.53;;;;;;;7.65;100.00;100720.31;5071940;28;20049;-63
2022/11/30 16:07:56;;;;;;;15.52;6.78;;;;;;;7.65;100.00;100717.66;5072718;28;20024;-63
2022/11/30 16:10:40;;;;;;;12.85;6.93;;;;;;;7.66;100.00;100727.28;5072363;28;20048;-63
2022/11/30 16:13:06;;;;;;;15.07;7.25;;;;;;;7.65;100.00;100724.78;5072525;28;20071;-63
2022/11/30 16:15:35;;;;;;;14.80;6.93;;;;;;;7.65;100.00;100725.59;5072910;28;20312;-63
2022/11/30 16:18:15;;;;;;;12.55;6.97;;;;;;;7.65;100.00;100725.59;5073098;28;20082;-62
2022/11/30 16:20:41;;;;;;;16.20;7.78;;;;;;;7.57;100.00;100721.03;5072030;28;20040;-63
2022/11/30 16:23:14;;;;;;;14.43;6.72;;;;;;;7.64;100.00;100723.94;5073234;28;20115;-63
2022/11/30 16:25:44;;;;;;;16.42;7.43;;;;;;;7.61;100.00;100732.16;5072413;28;20040;-60
2022/11/30 16:28:12;;;;;;;14.02;7.80;;;;;;;7.64;100.00;100723.94;5054611;28;20036;-62
2022/11/30 16:30:37;;;;;;;;;;;;;;;7.69;100.00;100739.41;5072231;28;20493;-62
2022/11/30 16:33:03;;;;;;;13.73;5.85;;;;;;;7.61;100.00;100733.00;5072185;28;20019;-63
2022/11/30 16:35:39;;;;;;;13.57;6.88;;;;;;;7.59;100.00;100731.47;5072047;28;20041;-63
2022/11/30 16:38:05;;;;;;;13.02;6.68;;;;;;;7.60;100.00;100733.16;5071960;28;20047;-64
2022/11/30 16:40:31;;;;;;;10.65;6.45;;;;;;;7.58;100.00;100733.28;5071848;28;20045;-63
2022/11/30 16:42:56;;;;;;;13.55;7.53;;;;;;;7.60;100.00;100733.16;5072013;28;20075;-63
2022/11/30 16:45:24;;;;;;;11.05;6.65;;;;;;;7.52;100.00;100741.81;5071880;28;20076;-62
2022/11/30 16:47:50;;;;;;;11.48;6.68;;;;;;;7.56;100.00;100743.22;5071945;28;20040;-63
2022/11/30 16:50:17;;;;;;;13.73;7.60;;;;;;;7.54;100.00;100744.31;5071510;28;20037;-63
2022/11/30 16:52:43;;;;;;;13.02;6.82;;;;;;;7.54;100.00;100742.50;5072254;28;20562;-61
2022/11/30 16:55:33;;;;;;;20.20;9.93;;;;;;;7.51;100.00;100752.56;5071854;28;20123;-60
2022/11/30 16:57:59;;;;;;;15.15;8.05;;;;;;;7.46;100.00;100755.63;5073328;28;20028;-62
2022/11/30 17:00:26;;;;;;;12.73;7.22;;;;;;;7.47;100.00;100753.81;5071585;28;20052;-63
2022/11/30 17:02:56;;;;;;;14.15;7.57;;;;;;;7.48;100.00;100755.47;5071776;28;20040;-63
2022/11/30 17:05:22;;;;;;;18.38;8.15;;;;;;;7.47;100.00;100751.16;5071741;28;20181;-63